Time,TemperatureF,DewpointF,PressureIn,WindDirection,WindDirectionDegrees,WindSpeedMPH,WindSpeedGustMPH,Humidity,HourlyPrecipIn,Conditions,Clouds,dailyrainin,SoftwareType,DateUTC
2013-09-04 00:08:00,58.9,56.0,30.09,SW,219,0.0,0.0,90,0.00,,,0.00,weatherlink.com 1.10,2013-09-04 05:08:00,
2013-09-04 00:23:00,58.9,56.0,30.08,SW,219,0.0,0.0,89,0.00,,,0.00,weatherlink.com 1.10,2013-09-04 05:23:00,
2013-09-04 00:38:00,58.5,55.0,30.09,SW,219,0.0,0.0,89,0.00,,,0.00,weatherlink.com 1.10,2013-09-04 05:38:00,
2013-09-04 00:53:00,58.0,55.0,30.09,SW,219,0.0,0.0,90,0.00,,,0.00,weatherlink.com 1.10,2013-09-04 05:53:00,
2013-09-04 01:08:00,57.8,56.0,30.09,SW,219,0.0,0.0,92,0.00,,,0.00,weatherlink.com 1.10,2013-09-04 06:08:00,
2013-09-04 01:23:00,58.0,56.0,30.09,SW,219,0.0,0.0,92,0.00,,,0.00,weatherlink.com 1.10,2013-09-04 06:23:00,
2013-09-04 01:38:00,57.5,55.0,30.09,SW,219,0.0,0.0,91,0.00,,,0.00,weatherlink.com 1.10,2013-09-04 06:38:00,
2013-09-04 01:53:00,56.8,55.0,30.10,SW,219,0.0,0.0,92,0.00,,,0.00,weatherlink.com 1.10,2013-09-04 06:53:00,
2013-09-04 02:08:00,56.6,55.0,30.10,SW,219,0.0,0.0,94,0.00,,,0.00,weatherlink.com 1.10,2013-09-04 07:08:00,
2013-09-04 02:23:00,56.3,54.0,30.10,SW,219,0.0,0.0,93,0.00,,,0.00,weatherlink.com 1.10,2013-09-04 07:23:00,
2013-09-04 02:38:00,55.9,54.0,30.10,SW,219,0.0,0.0,94,0.00,,,0.00,weatherlink.com 1.10,2013-09-04 07:38:00,
2013-09-04 02:53:00,55.7,54.0,30.11,SW,219,0.0,0.0,94,0.00,,,0.00,weatherlink.com 1.10,2013-09-04 07:53:00,
2013-09-04 03:08:00,55.3,54.0,30.11,SW,219,0.0,0.0,94,0.00,,,0.00,weatherlink.com 1.10,2013-09-04 08:08:00,
2013-09-04 03:23:00,55.1,54.0,30.11,SW,219,0.0,0.0,95,0.00,,,0.00,weatherlink.com 1.10,2013-09-04 08:23:00,
2013-09-04 03:38:00,55.4,54.0,30.11,SW,219,0.0,0.0,95,0.00,,,0.00,weatherlink.com 1.10,2013-09-04 08:38:00,
2013-09-04 03:53:00,55.5,54.0,30.12,SW,219,0.0,0.0,95,0.00,,,0.00,weatherlink.com 1.10,2013-09-04 08:53:00,
2013-09-04 04:09:00,55.3,54.0,30.12,SW,219,0.0,0.0,95,0.00,,,0.00,weatherlink.com 1.10,2013-09-04 09:09:00,
2013-09-04 04:24:00,55.3,54.0,30.12,SW,219,0.0,0.0,95,0.00,,,0.00,weatherlink.com 1.10,2013-09-04 09:24:00,
2013-09-04 04:39:00,55.2,54.0,30.13,SW,219,0.0,0.0,94,0.00,,,0.00,weatherlink.com 1.10,2013-09-04 09:39:00,
2013-09-04 04:54:00,55.0,54.0,30.13,SW,219,0.0,0.0,95,0.00,,,0.00,weatherlink.com 1.10,2013-09-04 09:54:00,
2013-09-04 05:09:00,55.0,54.0,30.13,SW,219,0.0,0.0,95,0.00,,,0.00,weatherlink.com 1.10,2013-09-04 10:09:00,
2013-09-04 05:24:00,55.1,54.0,30.13,SW,219,0.0,0.0,95,0.00,,,0.00,weatherlink.com 1.10,2013-09-04 10:24:00,
2013-09-04 05:39:00,54.8,53.0,30.13,SW,219,0.0,0.0,94,0.00,,,0.00,weatherlink.com 1.10,2013-09-04 10:39:00,
2013-09-04 05:54:00,54.6,53.0,30.13,SW,219,0.0,0.0,95,0.00,,,0.00,weatherlink.com 1.10,2013-09-04 10:54:00,
2013-09-04 06:09:00,54.8,53.0,30.13,SW,219,0.0,0.0,95,0.00,,,0.00,weatherlink.com 1.10,2013-09-04 11:09:00,
2013-09-04 06:24:00,54.6,53.0,30.14,SW,219,0.0,0.0,95,0.00,,,0.00,weatherlink.com 1.10,2013-09-04 11:24:00,
2013-09-04 06:39:00,54.5,53.0,30.15,SW,219,0.0,0.0,95,0.00,,,0.00,weatherlink.com 1.10,2013-09-04 11:39:00,
2013-09-04 06:54:00,54.5,53.0,30.15,SW,219,0.0,1.0,95,0.00,,,0.00,weatherlink.com 1.10,2013-09-04 11:54:00,
2013-09-04 07:09:00,54.8,54.0,30.15,SW,219,0.0,0.0,96,0.00,,,0.00,weatherlink.com 1.10,2013-09-04 12:09:00,
2013-09-04 07:24:00,55.0,54.0,30.16,SW,219,0.0,0.0,96,0.00,,,0.00,weatherlink.com 1.10,2013-09-04 12:24:00,
2013-09-04 07:39:00,55.0,54.0,30.16,SW,219,0.0,0.0,95,0.00,,,0.00,weatherlink.com 1.10,2013-09-04 12:39:00,
2013-09-04 07:54:00,55.5,54.0,30.16,SW,219,0.0,0.0,96,0.00,,,0.00,weatherlink.com 1.10,2013-09-04 12:54:00,
2013-09-04 08:09:00,56.4,55.0,30.16,SW,219,0.0,0.0,96,0.00,,,0.00,weatherlink.com 1.10,2013-09-04 13:09:00,
2013-09-04 08:24:00,57.7,56.0,30.16,SW,219,0.0,0.0,95,0.00,,,0.00,weatherlink.com 1.10,2013-09-04 13:24:00,
2013-09-04 08:39:00,59.1,57.0,30.16,SW,219,0.0,0.0,93,0.00,,,0.00,weatherlink.com 1.10,2013-09-04 13:39:00,
2013-09-04 08:54:00,60.7,58.0,30.16,SW,219,0.0,1.0,92,0.00,,,0.00,weatherlink.com 1.10,2013-09-04 13:54:00,
2013-09-04 09:09:00,62.3,59.0,30.16,SW,219,2.0,3.0,89,0.00,,,0.00,weatherlink.com 1.10,2013-09-04 14:09:00,
2013-09-04 09:24:00,63.6,60.0,30.16,SSW,209,2.0,3.0,88,0.00,,,0.00,weatherlink.com 1.10,2013-09-04 14:24:00,
2013-09-04 09:39:00,65.7,61.0,30.16,SW,222,1.0,4.0,84,0.00,,,0.00,weatherlink.com 1.10,2013-09-04 14:39:00,
2013-09-04 09:54:00,67.9,61.0,30.16,SW,227,1.0,5.0,79,0.00,,,0.00,weatherlink.com 1.10,2013-09-04 14:54:00,
2013-09-04 10:09:00,69.3,61.0,30.16,South,189,2.0,4.0,76,0.00,,,0.00,weatherlink.com 1.10,2013-09-04 15:09:00,
2013-09-04 10:24:00,70.6,61.0,30.16,SSW,213,1.0,4.0,71,0.00,,,0.00,weatherlink.com 1.10,2013-09-04 15:24:00,
2013-09-04 10:39:00,72.1,62.0,30.16,SW,221,0.0,4.0,71,0.00,,,0.00,weatherlink.com 1.10,2013-09-04 15:39:00,
2013-09-04 10:54:00,72.8,62.0,30.16,SW,231,0.0,6.0,68,0.00,,,0.00,weatherlink.com 1.10,2013-09-04 15:54:00,
2013-09-04 11:09:00,73.5,61.0,30.16,SW,223,2.0,4.0,65,0.00,,,0.00,weatherlink.com 1.10,2013-09-04 16:09:00,
2013-09-04 11:25:00,74.1,62.0,30.16,WSW,237,0.0,5.0,65,0.00,,,0.00,weatherlink.com 1.10,2013-09-04 16:25:00,
2013-09-04 11:40:00,74.8,61.0,30.16,SW,226,0.0,3.0,63,0.00,,,0.00,weatherlink.com 1.10,2013-09-04 16:40:00,
2013-09-04 11:55:00,75.5,61.0,30.16,SSW,213,1.0,5.0,61,0.00,,,0.00,weatherlink.com 1.10,2013-09-04 16:55:00,
2013-09-04 12:10:00,75.9,62.0,30.16,WSW,256,1.0,7.0,63,0.00,,,0.00,weatherlink.com 1.10,2013-09-04 17:10:00,
2013-09-04 12:25:00,77.1,63.0,30.16,WNW,284,0.0,2.0,63,0.00,,,0.00,weatherlink.com 1.10,2013-09-04 17:25:00,
2013-09-04 12:40:00,77.3,63.0,30.16,WNW,282,0.0,5.0,61,0.00,,,0.00,weatherlink.com 1.10,2013-09-04 17:40:00,
2013-09-04 12:55:00,77.5,63.0,30.16,WSW,246,0.0,6.0,62,0.00,,,0.00,weatherlink.com 1.10,2013-09-04 17:55:00,
2013-09-04 13:10:00,78.3,61.0,30.15,WSW,240,0.0,4.0,56,0.00,,,0.00,weatherlink.com 1.10,2013-09-04 18:10:00,
2013-09-04 13:25:00,78.7,63.0,30.15,South,190,2.0,5.0,58,0.00,,,0.00,weatherlink.com 1.10,2013-09-04 18:25:00,
2013-09-04 13:40:00,79.3,63.0,30.15,SW,228,2.0,5.0,58,0.00,,,0.00,weatherlink.com 1.10,2013-09-04 18:40:00,
2013-09-04 13:55:00,79.8,64.0,30.15,SSW,206,3.0,4.0,59,0.00,,,0.00,weatherlink.com 1.10,2013-09-04 18:55:00,
2013-09-04 14:10:00,80.2,63.0,30.15,SW,228,0.0,5.0,56,0.00,,,0.00,weatherlink.com 1.10,2013-09-04 19:10:00,
2013-09-04 14:25:00,81.0,63.0,30.14,SW,224,1.0,3.0,55,0.00,,,0.00,weatherlink.com 1.10,2013-09-04 19:25:00,
2013-09-04 14:40:00,81.4,64.0,30.13,SW,221,0.0,2.0,56,0.00,,,0.00,weatherlink.com 1.10,2013-09-04 19:40:00,
2013-09-04 14:55:00,81.8,65.0,30.13,SW,216,0.0,3.0,56,0.00,,,0.00,weatherlink.com 1.10,2013-09-04 19:55:00,
2013-09-04 15:10:00,81.9,64.0,30.13,SSW,200,4.0,5.0,54,0.00,,,0.00,weatherlink.com 1.10,2013-09-04 20:10:00,
2013-09-04 15:25:00,81.9,63.0,30.12,SW,225,2.0,4.0,53,0.00,,,0.00,weatherlink.com 1.10,2013-09-04 20:25:00,
2013-09-04 15:40:00,82.1,64.0,30.12,SW,236,0.0,3.0,55,0.00,,,0.00,weatherlink.com 1.10,2013-09-04 20:40:00,
2013-09-04 15:55:00,82.0,64.0,30.12,SW,227,0.0,4.0,55,0.00,,,0.00,weatherlink.com 1.10,2013-09-04 20:55:00,
2013-09-04 16:10:00,81.9,65.0,30.11,SW,219,2.0,4.0,56,0.00,,,0.00,weatherlink.com 1.10,2013-09-04 21:10:00,
2013-09-04 16:25:00,81.6,64.0,30.11,SW,220,1.0,4.0,56,0.00,,,0.00,weatherlink.com 1.10,2013-09-04 21:25:00,
2013-09-04 16:40:00,81.3,66.0,30.11,SSW,205,0.0,2.0,59,0.00,,,0.00,weatherlink.com 1.10,2013-09-04 21:40:00,
2013-09-04 16:55:00,81.1,66.0,30.10,SW,228,0.0,3.0,60,0.00,,,0.00,weatherlink.com 1.10,2013-09-04 21:55:00,
2013-09-04 17:10:00,80.8,65.0,30.10,SW,230,0.0,3.0,58,0.00,,,0.00,weatherlink.com 1.10,2013-09-04 22:10:00,
2013-09-04 17:25:00,80.7,65.0,30.10,SSW,209,0.0,4.0,59,0.00,,,0.00,weatherlink.com 1.10,2013-09-04 22:25:00,
2013-09-04 17:40:00,80.4,67.0,30.10,SSW,209,0.0,1.0,64,0.00,,,0.00,weatherlink.com 1.10,2013-09-04 22:40:00,
2013-09-04 17:55:00,79.9,66.0,30.10,SSW,209,0.0,1.0,63,0.00,,,0.00,weatherlink.com 1.10,2013-09-04 22:55:00,
2013-09-04 18:10:00,79.3,67.0,30.10,SW,214,0.0,2.0,66,0.00,,,0.00,weatherlink.com 1.10,2013-09-04 23:10:00,
2013-09-04 18:25:00,78.4,68.0,30.10,SSW,209,0.0,0.0,70,0.00,,,0.00,weatherlink.com 1.10,2013-09-04 23:25:00,
2013-09-04 18:40:00,77.5,67.0,30.10,SSW,209,0.0,1.0,70,0.00,,,0.00,weatherlink.com 1.10,2013-09-04 23:40:00,
2013-09-04 18:55:00,76.9,67.0,30.10,SSW,209,0.0,0.0,72,0.00,,,0.00,weatherlink.com 1.10,2013-09-04 23:55:00,
2013-09-04 19:10:00,75.6,67.0,30.10,SSW,209,0.0,0.0,74,0.00,,,0.00,weatherlink.com 1.10,2013-09-05 00:10:00,
2013-09-04 19:25:00,74.4,66.0,30.10,SSW,209,0.0,0.0,76,0.00,,,0.00,weatherlink.com 1.10,2013-09-05 00:25:00,
2013-09-04 19:40:00,73.6,66.0,30.10,SSW,209,0.0,0.0,78,0.00,,,0.00,weatherlink.com 1.10,2013-09-05 00:40:00,
2013-09-04 19:55:00,73.2,66.0,30.11,SSW,209,0.0,0.0,77,0.00,,,0.00,weatherlink.com 1.10,2013-09-05 00:55:00,
2013-09-04 20:10:00,72.8,66.0,30.11,SSW,209,0.0,0.0,78,0.00,,,0.00,weatherlink.com 1.10,2013-09-05 01:10:00,
2013-09-04 20:25:00,72.1,66.0,30.11,SSW,209,0.0,0.0,80,0.00,,,0.00,weatherlink.com 1.10,2013-09-05 01:25:00,
2013-09-04 20:40:00,71.4,65.0,30.12,SSW,209,0.0,0.0,81,0.00,,,0.00,weatherlink.com 1.10,2013-09-05 01:40:00,
2013-09-04 20:55:00,71.3,66.0,30.12,SSW,209,0.0,0.0,82,0.00,,,0.00,weatherlink.com 1.10,2013-09-05 01:55:00,
2013-09-04 21:10:00,70.9,65.0,30.12,SSW,209,0.0,0.0,82,0.00,,,0.00,weatherlink.com 1.10,2013-09-05 02:10:00,
2013-09-04 21:25:00,69.9,65.0,30.13,SSW,209,0.0,0.0,84,0.00,,,0.00,weatherlink.com 1.10,2013-09-05 02:25:00,
2013-09-04 21:40:00,69.5,65.0,30.13,SSW,209,0.0,0.0,85,0.00,,,0.00,weatherlink.com 1.10,2013-09-05 02:40:00,
2013-09-04 21:55:00,69.5,65.0,30.13,SSW,209,0.0,0.0,85,0.00,,,0.00,weatherlink.com 1.10,2013-09-05 02:55:00,
2013-09-04 22:17:00,69.2,65.0,30.13,SSW,209,0.0,0.0,86,0.00,,,0.00,weatherlink.com 1.10,2013-09-05 03:17:00,
2013-09-04 22:26:00,69.0,65.0,30.13,SSW,209,0.0,0.0,86,0.00,,,0.00,weatherlink.com 1.10,2013-09-05 03:26:00,
2013-09-04 22:41:00,68.8,65.0,30.13,SSW,209,0.0,0.0,87,0.00,,,0.00,weatherlink.com 1.10,2013-09-05 03:41:00,
2013-09-04 22:56:00,68.6,65.0,30.13,SSW,209,0.0,0.0,87,0.00,,,0.00,weatherlink.com 1.10,2013-09-05 03:56:00,
2013-09-04 23:14:00,68.2,65.0,30.13,SSW,209,0.0,0.0,88,0.00,,,0.00,weatherlink.com 1.10,2013-09-05 04:14:00,
2013-09-04 23:26:00,67.9,64.0,30.13,SSW,209,0.0,0.0,88,0.00,,,0.00,weatherlink.com 1.10,2013-09-05 04:26:00,
2013-09-04 23:41:00,67.6,64.0,30.13,SSW,209,0.0,0.0,89,0.00,,,0.00,weatherlink.com 1.10,2013-09-05 04:41:00,
2013-09-04 23:56:00,67.4,64.0,30.13,SSW,209,0.0,0.0,89,0.00,,,0.00,weatherlink.com 1.10,2013-09-05 04:56:00,